Weather

The location could not be found.

 

 

For a detailed forecast click the banner below.

ballooncastlogo

 

 

Available data for KABQ from the past 2 hours
ALBUQUERQUE, NM
Metar
KABQ 271152Z 32004KT 10SM FEW150 21/07 A3025 RMK AO2 SLP150 T02110072 10256 20206 53007

11:52 UTC

Wind: 320° 4kt

Visibility: 10 SM

Sky: FEW 15000 ft

Temp: 21 deg C / 69.8 deg F

Dewpoint: 7 deg C / 44.6 deg F

Pressure: 30.25 inHg

TAF
KABQ 271120Z 2712/2812 18007KT P6SM FEW120 FM272030 20012G20KT P6SM SCT120 FM280000 20010G20KT P6SM VCSH SCT120 SCT200 FM280400 12012G18KT P6SM SCT120 SCT200